sensor_id;sensor_type;location;lat;lon;timestamp;P1;durP1;ratioP1;P2;durP2;ratioP2
14470;SDS011;7321;50.802;4.336;2023-07-02T00:00:04;29.95;;;16.63;;
14470;SDS011;7321;50.802;4.336;2023-07-02T00:02:31;27.33;;;17.23;;
14470;SDS011;7321;50.802;4.336;2023-07-02T00:05:01;27.17;;;17.85;;
14470;SDS011;7321;50.802;4.336;2023-07-02T00:07:27;23.88;;;17.30;;
14470;SDS011;7321;50.802;4.336;2023-07-02T00:09:54;27.38;;;17.10;;
14470;SDS011;7321;50.802;4.336;2023-07-02T00:12:21;29.65;;;17.33;;
14470;SDS011;7321;50.802;4.336;2023-07-02T00:14:52;26.58;;;17.67;;
14470;SDS011;7321;50.802;4.336;2023-07-02T00:17:21;28.90;;;18.27;;
14470;SDS011;7321;50.802;4.336;2023-07-02T00:19:50;29.38;;;18.10;;
14470;SDS011;7321;50.802;4.336;2023-07-02T00:22:18;31.92;;;17.85;;
14470;SDS011;7321;50.802;4.336;2023-07-02T00:24:44;28.80;;;17.83;;
14470;SDS011;7321;50.802;4.336;2023-07-02T00:27:10;28.33;;;18.67;;
14470;SDS011;7321;50.802;4.336;2023-07-02T00:29:39;30.48;;;18.85;;
14470;SDS011;7321;50.802;4.336;2023-07-02T00:32:06;27.55;;;18.80;;
14470;SDS011;7321;50.802;4.336;2023-07-02T00:34:33;33.75;;;19.50;;
14470;SDS011;7321;50.802;4.336;2023-07-02T00:37:00;30.73;;;19.63;;
14470;SDS011;7321;50.802;4.336;2023-07-02T00:39:26;29.70;;;19.17;;
14470;SDS011;7321;50.802;4.336;2023-07-02T00:41:53;26.48;;;18.80;;
14470;SDS011;7321;50.802;4.336;2023-07-02T00:44:20;30.50;;;19.35;;
14470;SDS011;7321;50.802;4.336;2023-07-02T00:46:47;24.92;;;18.17;;
14470;SDS011;7321;50.802;4.336;2023-07-02T00:49:14;33.78;;;19.60;;
14470;SDS011;7321;50.802;4.336;2023-07-02T00:51:40;30.73;;;19.65;;
14470;SDS011;7321;50.802;4.336;2023-07-02T00:54:07;33.40;;;19.83;;
14470;SDS011;7321;50.802;4.336;2023-07-02T00:56:35;30.17;;;19.10;;
14470;SDS011;7321;50.802;4.336;2023-07-02T00:59:04;31.50;;;18.75;;
14470;SDS011;7321;50.802;4.336;2023-07-02T01:01:32;31.70;;;20.35;;
14470;SDS011;7321;50.802;4.336;2023-07-02T01:04:05;34.33;;;20.45;;
14470;SDS011;7321;50.802;4.336;2023-07-02T01:06:41;35.55;;;21.80;;
14470;SDS011;7321;50.802;4.336;2023-07-02T01:09:10;33.58;;;20.85;;
14470;SDS011;7321;50.802;4.336;2023-07-02T01:11:46;39.42;;;21.45;;
14470;SDS011;7321;50.802;4.336;2023-07-02T01:14:33;36.10;;;21.23;;
14470;SDS011;7321;50.802;4.336;2023-07-02T01:17:05;36.80;;;21.00;;
14470;SDS011;7321;50.802;4.336;2023-07-02T01:19:42;32.10;;;20.67;;
14470;SDS011;7321;50.802;4.336;2023-07-02T01:22:10;32.88;;;21.00;;
14470;SDS011;7321;50.802;4.336;2023-07-02T01:24:39;37.42;;;22.33;;
14470;SDS011;7321;50.802;4.336;2023-07-02T01:27:06;32.58;;;21.20;;
14470;SDS011;7321;50.802;4.336;2023-07-02T01:29:32;37.95;;;22.33;;
14470;SDS011;7321;50.802;4.336;2023-07-02T01:32:03;34.08;;;21.92;;
14470;SDS011;7321;50.802;4.336;2023-07-02T01:34:32;37.03;;;22.25;;
14470;SDS011;7321;50.802;4.336;2023-07-02T01:37:03;33.63;;;22.48;;
14470;SDS011;7321;50.802;4.336;2023-07-02T01:39:30;30.90;;;20.60;;
14470;SDS011;7321;50.802;4.336;2023-07-02T01:42:08;34.45;;;22.23;;
14470;SDS011;7321;50.802;4.336;2023-07-02T01:44:36;39.65;;;22.35;;
14470;SDS011;7321;50.802;4.336;2023-07-02T01:47:03;39.53;;;22.52;;
14470;SDS011;7321;50.802;4.336;2023-07-02T01:49:31;40.40;;;22.67;;
14470;SDS011;7321;50.802;4.336;2023-07-02T01:51:59;40.33;;;22.58;;
14470;SDS011;7321;50.802;4.336;2023-07-02T01:54:28;35.38;;;22.65;;
14470;SDS011;7321;50.802;4.336;2023-07-02T01:56:57;37.25;;;23.52;;
14470;SDS011;7321;50.802;4.336;2023-07-02T01:59:25;40.63;;;24.23;;
14470;SDS011;7321;50.802;4.336;2023-07-02T02:01:51;41.03;;;23.92;;
14470;SDS011;7321;50.802;4.336;2023-07-02T02:04:22;44.67;;;23.77;;
14470;SDS011;7321;50.802;4.336;2023-07-02T02:06:50;44.00;;;25.50;;
14470;SDS011;7321;50.802;4.336;2023-07-02T02:09:17;37.83;;;24.13;;
14470;SDS011;7321;50.802;4.336;2023-07-02T02:11:50;39.13;;;23.13;;
14470;SDS011;7321;50.802;4.336;2023-07-02T02:14:19;41.20;;;25.83;;
14470;SDS011;7321;50.802;4.336;2023-07-02T02:16:47;37.13;;;23.70;;
14470;SDS011;7321;50.802;4.336;2023-07-02T02:19:14;40.35;;;24.63;;
14470;SDS011;7321;50.802;4.336;2023-07-02T02:21:42;44.58;;;24.83;;
14470;SDS011;7321;50.802;4.336;2023-07-02T02:24:09;42.28;;;25.02;;
14470;SDS011;7321;50.802;4.336;2023-07-02T02:26:37;38.67;;;24.00;;
14470;SDS011;7321;50.802;4.336;2023-07-02T02:29:03;42.78;;;25.77;;
14470;SDS011;7321;50.802;4.336;2023-07-02T02:31:29;39.72;;;24.17;;
14470;SDS011;7321;50.802;4.336;2023-07-02T02:33:57;42.58;;;24.88;;
14470;SDS011;7321;50.802;4.336;2023-07-02T02:36:26;40.67;;;24.80;;
14470;SDS011;7321;50.802;4.336;2023-07-02T02:38:53;40.65;;;25.23;;
14470;SDS011;7321;50.802;4.336;2023-07-02T02:41:20;42.70;;;26.60;;
14470;SDS011;7321;50.802;4.336;2023-07-02T02:43:48;40.45;;;24.80;;
14470;SDS011;7321;50.802;4.336;2023-07-02T02:46:20;46.22;;;25.92;;
14470;SDS011;7321;50.802;4.336;2023-07-02T02:48:50;45.97;;;25.63;;
14470;SDS011;7321;50.802;4.336;2023-07-02T02:51:17;41.55;;;24.65;;
14470;SDS011;7321;50.802;4.336;2023-07-02T02:53:44;46.25;;;25.15;;
14470;SDS011;7321;50.802;4.336;2023-07-02T02:56:11;46.63;;;28.33;;
14470;SDS011;7321;50.802;4.336;2023-07-02T02:58:40;44.00;;;25.55;;
14470;SDS011;7321;50.802;4.336;2023-07-02T03:01:06;44.35;;;26.80;;
14470;SDS011;7321;50.802;4.336;2023-07-02T03:03:38;47.78;;;26.67;;
14470;SDS011;7321;50.802;4.336;2023-07-02T03:06:06;47.25;;;27.33;;
14470;SDS011;7321;50.802;4.336;2023-07-02T03:08:33;45.47;;;26.67;;
14470;SDS011;7321;50.802;4.336;2023-07-02T03:11:00;54.30;;;27.83;;
14470;SDS011;7321;50.802;4.336;2023-07-02T03:13:27;48.97;;;28.38;;
14470;SDS011;7321;50.802;4.336;2023-07-02T03:15:55;47.30;;;26.77;;
14470;SDS011;7321;50.802;4.336;2023-07-02T03:18:22;45.00;;;26.35;;
14470;SDS011;7321;50.802;4.336;2023-07-02T03:20:50;44.95;;;26.63;;
14470;SDS011;7321;50.802;4.336;2023-07-02T03:23:16;48.42;;;28.70;;
14470;SDS011;7321;50.802;4.336;2023-07-02T03:25:43;48.75;;;28.35;;
14470;SDS011;7321;50.802;4.336;2023-07-02T03:28:11;55.42;;;27.98;;
14470;SDS011;7321;50.802;4.336;2023-07-02T03:30:38;56.95;;;30.35;;
14470;SDS011;7321;50.802;4.336;2023-07-02T03:33:05;49.78;;;27.65;;
14470;SDS011;7321;50.802;4.336;2023-07-02T03:35:31;48.33;;;27.77;;
14470;SDS011;7321;50.802;4.336;2023-07-02T03:37:59;52.90;;;29.20;;
14470;SDS011;7321;50.802;4.336;2023-07-02T03:40:25;54.40;;;29.70;;
14470;SDS011;7321;50.802;4.336;2023-07-02T03:42:52;50.42;;;28.13;;
14470;SDS011;7321;50.802;4.336;2023-07-02T03:45:18;59.92;;;30.60;;
14470;SDS011;7321;50.802;4.336;2023-07-02T03:47:46;48.33;;;28.13;;
14470;SDS011;7321;50.802;4.336;2023-07-02T03:50:12;48.78;;;28.50;;
14470;SDS011;7321;50.802;4.336;2023-07-02T03:52:40;50.25;;;28.75;;
14470;SDS011;7321;50.802;4.336;2023-07-02T03:55:09;54.25;;;29.55;;
14470;SDS011;7321;50.802;4.336;2023-07-02T03:57:37;47.15;;;28.23;;
14470;SDS011;7321;50.802;4.336;2023-07-02T04:00:05;51.00;;;30.35;;
14470;SDS011;7321;50.802;4.336;2023-07-02T04:02:37;50.85;;;29.60;;
14470;SDS011;7321;50.802;4.336;2023-07-02T04:05:03;56.40;;;28.98;;
14470;SDS011;7321;50.802;4.336;2023-07-02T04:07:30;52.63;;;29.17;;
14470;SDS011;7321;50.802;4.336;2023-07-02T04:09:58;52.05;;;28.85;;
14470;SDS011;7321;50.802;4.336;2023-07-02T04:12:26;49.70;;;29.60;;
14470;SDS011;7321;50.802;4.336;2023-07-02T04:14:53;61.80;;;31.13;;
14470;SDS011;7321;50.802;4.336;2023-07-02T04:17:21;56.88;;;29.85;;
14470;SDS011;7321;50.802;4.336;2023-07-02T04:19:48;51.38;;;29.60;;
14470;SDS011;7321;50.802;4.336;2023-07-02T04:22:15;50.83;;;29.90;;
14470;SDS011;7321;50.802;4.336;2023-07-02T04:24:46;47.80;;;28.35;;
14470;SDS011;7321;50.802;4.336;2023-07-02T04:27:16;58.03;;;29.33;;
14470;SDS011;7321;50.802;4.336;2023-07-02T04:29:46;53.72;;;30.27;;
14470;SDS011;7321;50.802;4.336;2023-07-02T04:32:13;49.45;;;28.77;;
14470;SDS011;7321;50.802;4.336;2023-07-02T04:34:39;54.53;;;30.02;;
14470;SDS011;7321;50.802;4.336;2023-07-02T04:37:09;52.88;;;29.92;;
14470;SDS011;7321;50.802;4.336;2023-07-02T04:39:36;47.78;;;28.63;;
14470;SDS011;7321;50.802;4.336;2023-07-02T04:42:06;51.67;;;29.20;;
14470;SDS011;7321;50.802;4.336;2023-07-02T04:44:34;46.05;;;28.55;;
14470;SDS011;7321;50.802;4.336;2023-07-02T04:47:02;55.83;;;29.55;;
14470;SDS011;7321;50.802;4.336;2023-07-02T04:49:30;56.75;;;29.33;;
14470;SDS011;7321;50.802;4.336;2023-07-02T04:51:57;48.35;;;27.63;;
14470;SDS011;7321;50.802;4.336;2023-07-02T04:54:28;48.35;;;28.40;;
14470;SDS011;7321;50.802;4.336;2023-07-02T04:56:54;49.00;;;29.08;;
14470;SDS011;7321;50.802;4.336;2023-07-02T04:59:21;50.13;;;28.80;;
14470;SDS011;7321;50.802;4.336;2023-07-02T05:01:48;51.08;;;27.83;;
14470;SDS011;7321;50.802;4.336;2023-07-02T05:04:16;55.80;;;28.08;;
14470;SDS011;7321;50.802;4.336;2023-07-02T05:06:42;45.20;;;27.60;;
14470;SDS011;7321;50.802;4.336;2023-07-02T05:09:10;56.33;;;29.77;;
14470;SDS011;7321;50.802;4.336;2023-07-02T05:11:38;51.63;;;28.65;;
14470;SDS011;7321;50.802;4.336;2023-07-02T05:14:05;45.08;;;26.58;;
14470;SDS011;7321;50.802;4.336;2023-07-02T05:16:31;44.88;;;26.73;;
14470;SDS011;7321;50.802;4.336;2023-07-02T05:18:57;49.00;;;28.83;;
14470;SDS011;7321;50.802;4.336;2023-07-02T05:21:25;47.30;;;28.25;;
14470;SDS011;7321;50.802;4.336;2023-07-02T05:23:51;48.50;;;28.48;;
14470;SDS011;7321;50.802;4.336;2023-07-02T05:26:19;43.78;;;27.80;;
14470;SDS011;7321;50.802;4.336;2023-07-02T05:28:45;56.50;;;29.13;;
14470;SDS011;7321;50.802;4.336;2023-07-02T05:31:12;45.55;;;27.80;;
14470;SDS011;7321;50.802;4.336;2023-07-02T05:33:38;48.50;;;27.65;;
14470;SDS011;7321;50.802;4.336;2023-07-02T05:36:05;49.25;;;28.63;;
14470;SDS011;7321;50.802;4.336;2023-07-02T05:38:33;50.60;;;28.73;;
14470;SDS011;7321;50.802;4.336;2023-07-02T05:40:59;49.38;;;27.50;;
14470;SDS011;7321;50.802;4.336;2023-07-02T05:43:30;49.40;;;28.25;;
14470;SDS011;7321;50.802;4.336;2023-07-02T05:45:57;43.72;;;27.80;;
14470;SDS011;7321;50.802;4.336;2023-07-02T05:48:27;45.47;;;28.00;;
14470;SDS011;7321;50.802;4.336;2023-07-02T05:50:55;48.00;;;28.08;;
14470;SDS011;7321;50.802;4.336;2023-07-02T05:53:23;47.92;;;28.77;;
14470;SDS011;7321;50.802;4.336;2023-07-02T05:55:50;48.97;;;29.05;;
14470;SDS011;7321;50.802;4.336;2023-07-02T05:58:17;49.83;;;28.20;;
14470;SDS011;7321;50.802;4.336;2023-07-02T06:00:45;51.20;;;29.67;;
14470;SDS011;7321;50.802;4.336;2023-07-02T06:03:15;40.90;;;27.67;;
14470;SDS011;7321;50.802;4.336;2023-07-02T06:05:48;45.33;;;26.85;;
14470;SDS011;7321;50.802;4.336;2023-07-02T06:08:15;47.55;;;27.27;;
14470;SDS011;7321;50.802;4.336;2023-07-02T06:10:42;55.42;;;29.70;;
14470;SDS011;7321;50.802;4.336;2023-07-02T06:13:13;40.25;;;26.40;;
14470;SDS011;7321;50.802;4.336;2023-07-02T06:15:40;47.03;;;28.10;;
14470;SDS011;7321;50.802;4.336;2023-07-02T06:18:07;47.90;;;28.10;;
14470;SDS011;7321;50.802;4.336;2023-07-02T06:20:36;47.90;;;28.48;;
14470;SDS011;7321;50.802;4.336;2023-07-02T06:23:06;50.90;;;27.90;;
14470;SDS011;7321;50.802;4.336;2023-07-02T06:25:35;44.33;;;27.58;;
14470;SDS011;7321;50.802;4.336;2023-07-02T06:28:02;46.97;;;27.65;;
14470;SDS011;7321;50.802;4.336;2023-07-02T06:30:29;44.88;;;27.25;;
14470;SDS011;7321;50.802;4.336;2023-07-02T06:32:55;42.35;;;26.85;;
14470;SDS011;7321;50.802;4.336;2023-07-02T06:35:23;45.85;;;28.55;;
14470;SDS011;7321;50.802;4.336;2023-07-02T06:37:49;44.85;;;27.27;;
14470;SDS011;7321;50.802;4.336;2023-07-02T06:40:19;45.08;;;26.65;;
14470;SDS011;7321;50.802;4.336;2023-07-02T06:42:46;43.67;;;25.38;;
14470;SDS011;7321;50.802;4.336;2023-07-02T06:45:15;40.83;;;25.48;;
14470;SDS011;7321;50.802;4.336;2023-07-02T06:47:44;38.83;;;23.98;;
14470;SDS011;7321;50.802;4.336;2023-07-02T06:50:13;35.97;;;25.17;;
14470;SDS011;7321;50.802;4.336;2023-07-02T06:52:41;46.03;;;24.63;;
14470;SDS011;7321;50.802;4.336;2023-07-02T06:55:07;40.95;;;23.13;;
14470;SDS011;7321;50.802;4.336;2023-07-02T06:57:34;39.95;;;24.20;;
14470;SDS011;7321;50.802;4.336;2023-07-02T07:00:00;41.35;;;23.42;;
14470;SDS011;7321;50.802;4.336;2023-07-02T07:02:30;39.78;;;22.88;;
14470;SDS011;7321;50.802;4.336;2023-07-02T07:04:56;35.17;;;22.30;;
14470;SDS011;7321;50.802;4.336;2023-07-02T07:07:24;34.00;;;21.73;;
14470;SDS011;7321;50.802;4.336;2023-07-02T07:09:52;33.65;;;20.00;;
14470;SDS011;7321;50.802;4.336;2023-07-02T07:12:19;31.33;;;18.75;;
14470;SDS011;7321;50.802;4.336;2023-07-02T07:14:45;28.05;;;18.63;;
14470;SDS011;7321;50.802;4.336;2023-07-02T07:17:12;28.05;;;17.63;;
14470;SDS011;7321;50.802;4.336;2023-07-02T07:19:41;24.23;;;16.27;;
14470;SDS011;7321;50.802;4.336;2023-07-02T07:22:07;26.65;;;16.73;;
14470;SDS011;7321;50.802;4.336;2023-07-02T07:24:33;30.52;;;17.15;;
14470;SDS011;7321;50.802;4.336;2023-07-02T07:27:00;22.98;;;14.80;;
14470;SDS011;7321;50.802;4.336;2023-07-02T07:29:29;27.25;;;15.60;;
14470;SDS011;7321;50.802;4.336;2023-07-02T07:31:55;24.83;;;16.17;;
14470;SDS011;7321;50.802;4.336;2023-07-02T07:34:23;25.95;;;16.20;;
14470;SDS011;7321;50.802;4.336;2023-07-02T07:36:49;26.23;;;16.75;;
14470;SDS011;7321;50.802;4.336;2023-07-02T07:39:16;24.95;;;15.93;;
14470;SDS011;7321;50.802;4.336;2023-07-02T07:41:47;25.38;;;15.60;;
14470;SDS011;7321;50.802;4.336;2023-07-02T07:44:14;30.35;;;17.05;;
14470;SDS011;7321;50.802;4.336;2023-07-02T07:46:43;23.67;;;15.20;;
14470;SDS011;7321;50.802;4.336;2023-07-02T07:49:12;33.33;;;17.90;;
14470;SDS011;7321;50.802;4.336;2023-07-02T07:51:41;25.50;;;14.68;;
14470;SDS011;7321;50.802;4.336;2023-07-02T07:54:09;27.50;;;16.77;;
14470;SDS011;7321;50.802;4.336;2023-07-02T07:56:37;31.52;;;16.65;;
14470;SDS011;7321;50.802;4.336;2023-07-02T07:59:07;26.00;;;16.15;;
14470;SDS011;7321;50.802;4.336;2023-07-02T08:01:34;24.92;;;15.35;;
14470;SDS011;7321;50.802;4.336;2023-07-02T08:04:02;25.13;;;15.27;;
14470;SDS011;7321;50.802;4.336;2023-07-02T08:06:30;29.05;;;16.20;;
14470;SDS011;7321;50.802;4.336;2023-07-02T08:08:58;26.85;;;16.42;;
14470;SDS011;7321;50.802;4.336;2023-07-02T08:11:25;28.77;;;15.75;;
14470;SDS011;7321;50.802;4.336;2023-07-02T08:13:54;25.23;;;14.57;;
14470;SDS011;7321;50.802;4.336;2023-07-02T08:16:21;22.80;;;14.88;;
14470;SDS011;7321;50.802;4.336;2023-07-02T08:18:48;35.05;;;24.60;;
14470;SDS011;7321;50.802;4.336;2023-07-02T08:21:15;24.55;;;15.02;;
14470;SDS011;7321;50.802;4.336;2023-07-02T08:23:43;23.88;;;13.98;;
14470;SDS011;7321;50.802;4.336;2023-07-02T08:26:09;18.80;;;13.30;;
14470;SDS011;7321;50.802;4.336;2023-07-02T08:28:39;25.98;;;14.75;;
14470;SDS011;7321;50.802;4.336;2023-07-02T08:31:06;19.73;;;14.18;;
14470;SDS011;7321;50.802;4.336;2023-07-02T08:33:36;21.13;;;14.95;;
14470;SDS011;7321;50.802;4.336;2023-07-02T08:36:03;24.85;;;14.13;;
14470;SDS011;7321;50.802;4.336;2023-07-02T08:38:29;25.83;;;14.52;;
14470;SDS011;7321;50.802;4.336;2023-07-02T08:40:56;26.10;;;15.00;;
14470;SDS011;7321;50.802;4.336;2023-07-02T08:43:25;23.60;;;14.95;;
14470;SDS011;7321;50.802;4.336;2023-07-02T08:45:57;24.65;;;16.02;;
14470;SDS011;7321;50.802;4.336;2023-07-02T08:48:26;24.80;;;15.45;;
14470;SDS011;7321;50.802;4.336;2023-07-02T08:50:55;26.73;;;15.43;;
14470;SDS011;7321;50.802;4.336;2023-07-02T08:53:22;22.95;;;15.13;;
14470;SDS011;7321;50.802;4.336;2023-07-02T08:55:57;23.85;;;14.85;;
14470;SDS011;7321;50.802;4.336;2023-07-02T08:58:27;25.65;;;15.10;;
14470;SDS011;7321;50.802;4.336;2023-07-02T09:01:09;27.55;;;15.38;;
14470;SDS011;7321;50.802;4.336;2023-07-02T09:03:39;22.92;;;15.50;;
14470;SDS011;7321;50.802;4.336;2023-07-02T09:06:09;27.17;;;15.20;;
14470;SDS011;7321;50.802;4.336;2023-07-02T09:08:39;22.73;;;15.13;;
14470;SDS011;7321;50.802;4.336;2023-07-02T09:11:09;23.00;;;14.75;;
14470;SDS011;7321;50.802;4.336;2023-07-02T09:13:43;25.80;;;15.02;;
14470;SDS011;7321;50.802;4.336;2023-07-02T09:19:07;24.13;;;16.35;;
14470;SDS011;7321;50.802;4.336;2023-07-02T09:21:49;26.88;;;14.82;;
14470;SDS011;7321;50.802;4.336;2023-07-02T09:24:19;23.00;;;13.90;;
14470;SDS011;7321;50.802;4.336;2023-07-02T09:26:50;21.80;;;14.50;;
14470;SDS011;7321;50.802;4.336;2023-07-02T09:29:23;20.02;;;13.07;;
14470;SDS011;7321;50.802;4.336;2023-07-02T09:31:51;20.23;;;12.27;;
14470;SDS011;7321;50.802;4.336;2023-07-02T09:34:18;21.45;;;13.38;;
14470;SDS011;7321;50.802;4.336;2023-07-02T09:36:46;31.48;;;22.52;;
14470;SDS011;7321;50.802;4.336;2023-07-02T09:39:18;26.95;;;17.08;;
14470;SDS011;7321;50.802;4.336;2023-07-02T09:41:49;20.38;;;14.23;;
14470;SDS011;7321;50.802;4.336;2023-07-02T09:44:17;21.25;;;13.05;;
14470;SDS011;7321;50.802;4.336;2023-07-02T09:47:07;20.70;;;15.00;;
14470;SDS011;7321;50.802;4.336;2023-07-02T09:49:39;22.38;;;14.82;;
14470;SDS011;7321;50.802;4.336;2023-07-02T09:52:16;21.50;;;13.50;;
14470;SDS011;7321;50.802;4.336;2023-07-02T09:54:46;23.08;;;13.82;;
14470;SDS011;7321;50.802;4.336;2023-07-02T09:57:13;23.27;;;13.13;;
14470;SDS011;7321;50.802;4.336;2023-07-02T09:59:40;23.13;;;13.70;;
14470;SDS011;7321;50.802;4.336;2023-07-02T10:02:11;20.23;;;13.40;;
14470;SDS011;7321;50.802;4.336;2023-07-02T10:07:10;19.27;;;12.75;;
14470;SDS011;7321;50.802;4.336;2023-07-02T10:09:40;23.75;;;12.95;;
14470;SDS011;7321;50.802;4.336;2023-07-02T10:12:17;18.88;;;12.35;;
14470;SDS011;7321;50.802;4.336;2023-07-02T10:14:49;21.48;;;13.40;;
14470;SDS011;7321;50.802;4.336;2023-07-02T10:17:28;22.88;;;12.63;;
14470;SDS011;7321;50.802;4.336;2023-07-02T10:19:56;20.25;;;12.80;;
14470;SDS011;7321;50.802;4.336;2023-07-02T10:22:49;22.33;;;13.43;;
14470;SDS011;7321;50.802;4.336;2023-07-02T10:25:27;21.60;;;13.27;;
14470;SDS011;7321;50.802;4.336;2023-07-02T10:27:56;25.58;;;14.50;;
14470;SDS011;7321;50.802;4.336;2023-07-02T10:30:32;24.05;;;13.85;;
14470;SDS011;7321;50.802;4.336;2023-07-02T10:33:08;18.13;;;12.82;;
14470;SDS011;7321;50.802;4.336;2023-07-02T10:35:40;24.33;;;13.68;;
14470;SDS011;7321;50.802;4.336;2023-07-02T10:38:14;20.80;;;13.65;;
14470;SDS011;7321;50.802;4.336;2023-07-02T10:40:41;21.00;;;13.73;;
14470;SDS011;7321;50.802;4.336;2023-07-02T10:43:08;17.48;;;14.02;;
14470;SDS011;7321;50.802;4.336;2023-07-02T10:45:38;18.77;;;13.05;;
14470;SDS011;7321;50.802;4.336;2023-07-02T10:48:16;21.08;;;13.43;;
14470;SDS011;7321;50.802;4.336;2023-07-02T10:50:46;21.77;;;13.90;;
14470;SDS011;7321;50.802;4.336;2023-07-02T10:53:17;24.02;;;13.55;;
14470;SDS011;7321;50.802;4.336;2023-07-02T10:55:52;22.42;;;12.77;;
14470;SDS011;7321;50.802;4.336;2023-07-02T10:58:23;20.98;;;11.70;;
14470;SDS011;7321;50.802;4.336;2023-07-02T11:00:52;20.65;;;12.55;;
14470;SDS011;7321;50.802;4.336;2023-07-02T11:03:22;24.55;;;17.27;;
14470;SDS011;7321;50.802;4.336;2023-07-02T11:05:53;19.00;;;11.63;;
14470;SDS011;7321;50.802;4.336;2023-07-02T11:08:21;19.50;;;11.07;;
14470;SDS011;7321;50.802;4.336;2023-07-02T11:11:06;19.70;;;11.70;;
14470;SDS011;7321;50.802;4.336;2023-07-02T11:13:34;18.23;;;11.52;;
14470;SDS011;7321;50.802;4.336;2023-07-02T11:16:25;18.77;;;11.13;;
14470;SDS011;7321;50.802;4.336;2023-07-02T11:18:54;20.25;;;11.00;;
14470;SDS011;7321;50.802;4.336;2023-07-02T11:21:38;18.13;;;10.43;;
14470;SDS011;7321;50.802;4.336;2023-07-02T11:24:25;18.08;;;9.55;;
14470;SDS011;7321;50.802;4.336;2023-07-02T11:27:04;16.15;;;10.13;;
14470;SDS011;7321;50.802;4.336;2023-07-02T11:29:34;18.95;;;10.70;;
14470;SDS011;7321;50.802;4.336;2023-07-02T11:32:07;14.40;;;9.60;;
14470;SDS011;7321;50.802;4.336;2023-07-02T11:34:39;21.75;;;10.82;;
14470;SDS011;7321;50.802;4.336;2023-07-02T11:37:06;24.80;;;11.43;;
14470;SDS011;7321;50.802;4.336;2023-07-02T11:39:35;14.93;;;11.55;;
14470;SDS011;7321;50.802;4.336;2023-07-02T11:42:04;19.08;;;12.07;;
14470;SDS011;7321;50.802;4.336;2023-07-02T11:44:33;19.08;;;14.90;;
14470;SDS011;7321;50.802;4.336;2023-07-02T11:46:59;19.95;;;13.80;;
14470;SDS011;7321;50.802;4.336;2023-07-02T11:49:26;20.00;;;13.00;;
14470;SDS011;7321;50.802;4.336;2023-07-02T11:51:53;19.60;;;13.48;;
14470;SDS011;7321;50.802;4.336;2023-07-02T11:54:21;19.80;;;11.43;;
14470;SDS011;7321;50.802;4.336;2023-07-02T11:56:56;17.67;;;11.57;;
14470;SDS011;7321;50.802;4.336;2023-07-02T11:59:24;16.40;;;10.55;;
14470;SDS011;7321;50.802;4.336;2023-07-02T12:01:51;15.20;;;9.85;;
14470;SDS011;7321;50.802;4.336;2023-07-02T12:04:20;15.63;;;9.20;;
14470;SDS011;7321;50.802;4.336;2023-07-02T12:06:50;19.17;;;10.10;;
14470;SDS011;7321;50.802;4.336;2023-07-02T12:09:17;13.25;;;9.25;;
14470;SDS011;7321;50.802;4.336;2023-07-02T12:11:43;15.40;;;9.15;;
14470;SDS011;7321;50.802;4.336;2023-07-02T12:14:14;16.15;;;10.52;;
14470;SDS011;7321;50.802;4.336;2023-07-02T12:16:43;16.63;;;10.15;;
14470;SDS011;7321;50.802;4.336;2023-07-02T12:19:11;16.08;;;10.02;;
14470;SDS011;7321;50.802;4.336;2023-07-02T12:21:39;15.82;;;9.60;;
14470;SDS011;7321;50.802;4.336;2023-07-02T12:24:05;19.67;;;11.48;;
14470;SDS011;7321;50.802;4.336;2023-07-02T12:26:36;17.13;;;9.90;;
14470;SDS011;7321;50.802;4.336;2023-07-02T12:29:06;17.20;;;9.68;;
14470;SDS011;7321;50.802;4.336;2023-07-02T12:31:33;16.98;;;10.90;;
14470;SDS011;7321;50.802;4.336;2023-07-02T12:34:03;18.27;;;10.73;;
14470;SDS011;7321;50.802;4.336;2023-07-02T12:36:29;17.15;;;10.73;;
14470;SDS011;7321;50.802;4.336;2023-07-02T12:38:55;15.77;;;10.93;;
14470;SDS011;7321;50.802;4.336;2023-07-02T12:41:24;17.60;;;10.77;;
14470;SDS011;7321;50.802;4.336;2023-07-02T12:43:51;16.33;;;10.10;;
14470;SDS011;7321;50.802;4.336;2023-07-02T12:46:20;14.55;;;9.52;;
14470;SDS011;7321;50.802;4.336;2023-07-02T12:48:46;17.67;;;9.95;;
14470;SDS011;7321;50.802;4.336;2023-07-02T12:51:12;17.20;;;11.63;;
14470;SDS011;7321;50.802;4.336;2023-07-02T12:53:37;15.98;;;9.93;;
14470;SDS011;7321;50.802;4.336;2023-07-02T12:56:03;15.40;;;9.55;;
14470;SDS011;7321;50.802;4.336;2023-07-02T12:58:30;18.08;;;10.52;;
14470;SDS011;7321;50.802;4.336;2023-07-02T13:00:55;16.77;;;11.05;;
14470;SDS011;7321;50.802;4.336;2023-07-02T13:03:21;17.08;;;9.90;;
14470;SDS011;7321;50.802;4.336;2023-07-02T13:05:50;17.17;;;10.10;;
14470;SDS011;7321;50.802;4.336;2023-07-02T13:08:16;16.08;;;9.75;;
14470;SDS011;7321;50.802;4.336;2023-07-02T13:10:43;15.65;;;10.30;;
14470;SDS011;7321;50.802;4.336;2023-07-02T13:13:09;16.35;;;10.40;;
14470;SDS011;7321;50.802;4.336;2023-07-02T13:15:35;15.85;;;9.57;;
14470;SDS011;7321;50.802;4.336;2023-07-02T13:18:01;16.50;;;11.18;;
14470;SDS011;7321;50.802;4.336;2023-07-02T13:20:27;15.60;;;10.30;;
14470;SDS011;7321;50.802;4.336;2023-07-02T13:22:56;12.38;;;8.82;;
14470;SDS011;7321;50.802;4.336;2023-07-02T13:25:23;15.23;;;8.98;;
14470;SDS011;7321;50.802;4.336;2023-07-02T13:27:49;14.05;;;9.10;;
14470;SDS011;7321;50.802;4.336;2023-07-02T13:30:15;15.48;;;8.75;;
14470;SDS011;7321;50.802;4.336;2023-07-02T13:32:41;16.00;;;9.65;;
14470;SDS011;7321;50.802;4.336;2023-07-02T13:35:07;14.82;;;8.88;;
14470;SDS011;7321;50.802;4.336;2023-07-02T13:37:33;17.58;;;10.25;;
14470;SDS011;7321;50.802;4.336;2023-07-02T13:39:59;15.68;;;9.05;;
14470;SDS011;7321;50.802;4.336;2023-07-02T13:42:24;13.68;;;8.77;;
14470;SDS011;7321;50.802;4.336;2023-07-02T13:44:50;14.13;;;9.32;;
14470;SDS011;7321;50.802;4.336;2023-07-02T13:47:16;15.52;;;10.02;;
14470;SDS011;7321;50.802;4.336;2023-07-02T13:49:42;12.77;;;8.70;;
14470;SDS011;7321;50.802;4.336;2023-07-02T13:52:09;15.38;;;9.73;;
14470;SDS011;7321;50.802;4.336;2023-07-02T13:54:34;13.98;;;7.90;;
14470;SDS011;7321;50.802;4.336;2023-07-02T13:57:00;16.95;;;9.23;;
14470;SDS011;7321;50.802;4.336;2023-07-02T13:59:26;13.93;;;8.82;;
14470;SDS011;7321;50.802;4.336;2023-07-02T14:01:52;13.85;;;8.95;;
14470;SDS011;7321;50.802;4.336;2023-07-02T14:04:18;14.48;;;9.13;;
14470;SDS011;7321;50.802;4.336;2023-07-02T14:06:44;17.83;;;10.43;;
14470;SDS011;7321;50.802;4.336;2023-07-02T14:09:10;14.13;;;8.85;;
14470;SDS011;7321;50.802;4.336;2023-07-02T14:11:39;15.13;;;9.20;;
14470;SDS011;7321;50.802;4.336;2023-07-02T14:14:06;14.27;;;8.82;;
14470;SDS011;7321;50.802;4.336;2023-07-02T14:16:32;13.05;;;8.82;;
14470;SDS011;7321;50.802;4.336;2023-07-02T14:18:58;16.65;;;9.85;;
14470;SDS011;7321;50.802;4.336;2023-07-02T14:21:24;15.25;;;9.23;;
14470;SDS011;7321;50.802;4.336;2023-07-02T14:23:52;14.90;;;9.27;;
14470;SDS011;7321;50.802;4.336;2023-07-02T14:26:18;14.43;;;8.95;;
14470;SDS011;7321;50.802;4.336;2023-07-02T14:28:44;13.93;;;8.85;;
14470;SDS011;7321;50.802;4.336;2023-07-02T14:31:10;17.17;;;8.80;;
14470;SDS011;7321;50.802;4.336;2023-07-02T14:33:36;15.77;;;9.52;;
14470;SDS011;7321;50.802;4.336;2023-07-02T14:36:03;14.05;;;8.63;;
14470;SDS011;7321;50.802;4.336;2023-07-02T14:38:30;15.25;;;9.48;;
14470;SDS011;7321;50.802;4.336;2023-07-02T14:40:59;16.42;;;9.43;;
14470;SDS011;7321;50.802;4.336;2023-07-02T14:43:33;13.07;;;8.05;;
14470;SDS011;7321;50.802;4.336;2023-07-02T14:46:00;15.88;;;9.07;;
14470;SDS011;7321;50.802;4.336;2023-07-02T14:48:28;15.55;;;8.55;;